sensor_id;sensor_type;location;lat;lon;timestamp;P1;durP1;ratioP1;P2;durP2;ratioP2
10845;SDS011;5476;51.540;7.186;2023-02-24T00:00:27;13.33;;;3.73;;
10845;SDS011;5476;51.540;7.186;2023-02-24T00:03:02;12.43;;;3.63;;
10845;SDS011;5476;51.540;7.186;2023-02-24T00:05:35;15.20;;;4.30;;
10845;SDS011;5476;51.540;7.186;2023-02-24T00:08:04;16.10;;;5.13;;
10845;SDS011;5476;51.540;7.186;2023-02-24T00:10:31;14.60;;;4.70;;
10845;SDS011;5476;51.540;7.186;2023-02-24T00:13:01;16.87;;;5.37;;
10845;SDS011;5476;51.540;7.186;2023-02-24T00:15:28;19.00;;;5.20;;
10845;SDS011;5476;51.540;7.186;2023-02-24T00:17:56;19.23;;;5.60;;
10845;SDS011;5476;51.540;7.186;2023-02-24T00:20:23;23.43;;;5.73;;
10845;SDS011;5476;51.540;7.186;2023-02-24T00:22:52;18.67;;;5.03;;
10845;SDS011;5476;51.540;7.186;2023-02-24T00:25:19;16.97;;;4.47;;
10845;SDS011;5476;51.540;7.186;2023-02-24T00:27:47;22.37;;;4.50;;
10845;SDS011;5476;51.540;7.186;2023-02-24T00:30:15;17.77;;;4.53;;
10845;SDS011;5476;51.540;7.186;2023-02-24T00:32:42;20.23;;;4.80;;
10845;SDS011;5476;51.540;7.186;2023-02-24T00:35:09;18.23;;;4.67;;
10845;SDS011;5476;51.540;7.186;2023-02-24T00:37:36;20.13;;;4.50;;
10845;SDS011;5476;51.540;7.186;2023-02-24T00:40:06;23.30;;;4.40;;
10845;SDS011;5476;51.540;7.186;2023-02-24T00:42:35;17.10;;;4.70;;
10845;SDS011;5476;51.540;7.186;2023-02-24T00:45:04;24.50;;;5.60;;
10845;SDS011;5476;51.540;7.186;2023-02-24T00:47:35;16.73;;;5.97;;
10845;SDS011;5476;51.540;7.186;2023-02-24T00:50:04;17.60;;;4.50;;
10845;SDS011;5476;51.540;7.186;2023-02-24T00:52:31;20.37;;;4.93;;
10845;SDS011;5476;51.540;7.186;2023-02-24T00:54:58;20.57;;;5.23;;
10845;SDS011;5476;51.540;7.186;2023-02-24T00:57:27;20.83;;;5.93;;
10845;SDS011;5476;51.540;7.186;2023-02-24T00:59:54;18.87;;;5.77;;
10845;SDS011;5476;51.540;7.186;2023-02-24T01:02:22;21.57;;;5.70;;
10845;SDS011;5476;51.540;7.186;2023-02-24T01:04:50;17.73;;;4.60;;
10845;SDS011;5476;51.540;7.186;2023-02-24T01:07:17;14.40;;;5.07;;
10845;SDS011;5476;51.540;7.186;2023-02-24T01:09:45;21.53;;;4.70;;
10845;SDS011;5476;51.540;7.186;2023-02-24T01:12:16;22.47;;;4.33;;
10845;SDS011;5476;51.540;7.186;2023-02-24T01:15:05;15.63;;;4.93;;
10845;SDS011;5476;51.540;7.186;2023-02-24T01:17:34;18.33;;;4.43;;
10845;SDS011;5476;51.540;7.186;2023-02-24T01:20:02;19.43;;;4.07;;
10845;SDS011;5476;51.540;7.186;2023-02-24T01:22:40;19.07;;;4.60;;
10845;SDS011;5476;51.540;7.186;2023-02-24T01:25:07;18.90;;;3.93;;
10845;SDS011;5476;51.540;7.186;2023-02-24T01:27:35;18.67;;;4.60;;
10845;SDS011;5476;51.540;7.186;2023-02-24T01:30:06;20.93;;;4.27;;
10845;SDS011;5476;51.540;7.186;2023-02-24T01:32:37;19.70;;;4.20;;
10845;SDS011;5476;51.540;7.186;2023-02-24T01:35:05;24.43;;;4.30;;
10845;SDS011;5476;51.540;7.186;2023-02-24T01:37:32;22.00;;;5.27;;
10845;SDS011;5476;51.540;7.186;2023-02-24T01:39:59;13.47;;;3.90;;
10845;SDS011;5476;51.540;7.186;2023-02-24T01:42:35;23.67;;;4.70;;
10845;SDS011;5476;51.540;7.186;2023-02-24T01:45:11;17.03;;;4.20;;
10845;SDS011;5476;51.540;7.186;2023-02-24T01:47:39;19.83;;;4.10;;
10845;SDS011;5476;51.540;7.186;2023-02-24T01:50:07;18.63;;;4.23;;
10845;SDS011;5476;51.540;7.186;2023-02-24T01:52:38;16.43;;;4.70;;
10845;SDS011;5476;51.540;7.186;2023-02-24T01:55:08;13.47;;;4.10;;
10845;SDS011;5476;51.540;7.186;2023-02-24T01:57:38;17.77;;;4.90;;
10845;SDS011;5476;51.540;7.186;2023-02-24T02:00:10;17.83;;;4.73;;
10845;SDS011;5476;51.540;7.186;2023-02-24T02:02:56;13.87;;;3.90;;
10845;SDS011;5476;51.540;7.186;2023-02-24T02:05:25;20.33;;;4.40;;
10845;SDS011;5476;51.540;7.186;2023-02-24T02:07:52;20.00;;;4.57;;
10845;SDS011;5476;51.540;7.186;2023-02-24T02:10:19;18.77;;;3.97;;
10845;SDS011;5476;51.540;7.186;2023-02-24T02:12:47;19.63;;;3.70;;
10845;SDS011;5476;51.540;7.186;2023-02-24T02:15:16;16.13;;;3.87;;
10845;SDS011;5476;51.540;7.186;2023-02-24T02:17:47;15.13;;;3.23;;
10845;SDS011;5476;51.540;7.186;2023-02-24T02:20:36;16.73;;;3.13;;
10845;SDS011;5476;51.540;7.186;2023-02-24T02:23:14;22.40;;;3.70;;
10845;SDS011;5476;51.540;7.186;2023-02-24T02:25:47;19.30;;;4.27;;
10845;SDS011;5476;51.540;7.186;2023-02-24T02:34:24;12.63;;;3.43;;
10845;SDS011;5476;51.540;7.186;2023-02-24T02:36:54;11.67;;;3.27;;
10845;SDS011;5476;51.540;7.186;2023-02-24T02:39:26;13.77;;;3.80;;
10845;SDS011;5476;51.540;7.186;2023-02-24T02:41:58;19.93;;;4.37;;
10845;SDS011;5476;51.540;7.186;2023-02-24T02:44:30;16.47;;;4.00;;
10845;SDS011;5476;51.540;7.186;2023-02-24T02:47:06;19.50;;;3.30;;
10845;SDS011;5476;51.540;7.186;2023-02-24T02:49:39;13.33;;;3.80;;
10845;SDS011;5476;51.540;7.186;2023-02-24T02:52:09;13.63;;;3.30;;
10845;SDS011;5476;51.540;7.186;2023-02-24T02:54:40;14.27;;;3.53;;
10845;SDS011;5476;51.540;7.186;2023-02-24T02:57:14;16.57;;;3.47;;
10845;SDS011;5476;51.540;7.186;2023-02-24T02:59:44;12.70;;;3.00;;
10845;SDS011;5476;51.540;7.186;2023-02-24T03:02:14;14.97;;;3.07;;
10845;SDS011;5476;51.540;7.186;2023-02-24T03:04:47;9.43;;;2.83;;
10845;SDS011;5476;51.540;7.186;2023-02-24T03:07:16;14.93;;;2.90;;
10845;SDS011;5476;51.540;7.186;2023-02-24T03:09:45;12.77;;;3.50;;
10845;SDS011;5476;51.540;7.186;2023-02-24T03:12:15;14.30;;;2.90;;
10845;SDS011;5476;51.540;7.186;2023-02-24T03:14:45;14.33;;;3.40;;
10845;SDS011;5476;51.540;7.186;2023-02-24T03:17:16;12.77;;;3.03;;
10845;SDS011;5476;51.540;7.186;2023-02-24T03:19:47;12.33;;;2.87;;
10845;SDS011;5476;51.540;7.186;2023-02-24T03:22:19;15.53;;;3.17;;
10845;SDS011;5476;51.540;7.186;2023-02-24T03:24:48;15.63;;;3.13;;
10845;SDS011;5476;51.540;7.186;2023-02-24T03:27:18;11.93;;;2.97;;
10845;SDS011;5476;51.540;7.186;2023-02-24T03:29:47;15.80;;;3.40;;
10845;SDS011;5476;51.540;7.186;2023-02-24T03:32:17;17.73;;;2.63;;
10845;SDS011;5476;51.540;7.186;2023-02-24T03:34:49;16.10;;;3.47;;
10845;SDS011;5476;51.540;7.186;2023-02-24T03:37:20;8.80;;;2.73;;
10845;SDS011;5476;51.540;7.186;2023-02-24T03:39:51;8.53;;;2.80;;
10845;SDS011;5476;51.540;7.186;2023-02-24T03:42:19;13.93;;;3.37;;
10845;SDS011;5476;51.540;7.186;2023-02-24T03:44:47;17.57;;;2.70;;
10845;SDS011;5476;51.540;7.186;2023-02-24T03:47:15;10.83;;;2.63;;
10845;SDS011;5476;51.540;7.186;2023-02-24T03:49:44;11.50;;;2.70;;
10845;SDS011;5476;51.540;7.186;2023-02-24T03:52:16;13.37;;;3.10;;
10845;SDS011;5476;51.540;7.186;2023-02-24T03:54:51;7.93;;;2.70;;
10845;SDS011;5476;51.540;7.186;2023-02-24T03:57:25;10.63;;;2.67;;
10845;SDS011;5476;51.540;7.186;2023-02-24T03:59:56;13.70;;;2.57;;
10845;SDS011;5476;51.540;7.186;2023-02-24T04:02:41;13.73;;;2.53;;
10845;SDS011;5476;51.540;7.186;2023-02-24T04:05:09;7.13;;;2.63;;
10845;SDS011;5476;51.540;7.186;2023-02-24T04:07:41;11.50;;;2.60;;
10845;SDS011;5476;51.540;7.186;2023-02-24T04:10:10;11.20;;;2.70;;
10845;SDS011;5476;51.540;7.186;2023-02-24T04:12:41;13.53;;;3.30;;
10845;SDS011;5476;51.540;7.186;2023-02-24T04:15:13;16.70;;;2.83;;
10845;SDS011;5476;51.540;7.186;2023-02-24T04:17:42;13.93;;;3.03;;
10845;SDS011;5476;51.540;7.186;2023-02-24T04:20:11;16.33;;;3.63;;
10845;SDS011;5476;51.540;7.186;2023-02-24T04:22:42;15.10;;;3.87;;
10845;SDS011;5476;51.540;7.186;2023-02-24T04:25:13;16.60;;;3.47;;
10845;SDS011;5476;51.540;7.186;2023-02-24T04:27:43;16.50;;;4.03;;
10845;SDS011;5476;51.540;7.186;2023-02-24T04:30:12;14.43;;;3.80;;
10845;SDS011;5476;51.540;7.186;2023-02-24T04:32:39;16.60;;;4.23;;
10845;SDS011;5476;51.540;7.186;2023-02-24T04:35:08;10.73;;;3.27;;
10845;SDS011;5476;51.540;7.186;2023-02-24T04:37:38;11.73;;;3.37;;
10845;SDS011;5476;51.540;7.186;2023-02-24T04:40:10;14.77;;;3.97;;
10845;SDS011;5476;51.540;7.186;2023-02-24T04:42:40;12.93;;;4.00;;
10845;SDS011;5476;51.540;7.186;2023-02-24T04:45:13;11.27;;;3.30;;
10845;SDS011;5476;51.540;7.186;2023-02-24T04:47:40;14.20;;;3.47;;
10845;SDS011;5476;51.540;7.186;2023-02-24T04:50:10;10.63;;;3.40;;
10845;SDS011;5476;51.540;7.186;2023-02-24T04:52:46;11.83;;;3.67;;
10845;SDS011;5476;51.540;7.186;2023-02-24T04:55:15;14.63;;;3.57;;
10845;SDS011;5476;51.540;7.186;2023-02-24T04:57:43;11.57;;;3.40;;
10845;SDS011;5476;51.540;7.186;2023-02-24T05:00:12;12.87;;;3.57;;
10845;SDS011;5476;51.540;7.186;2023-02-24T05:02:45;14.33;;;3.97;;
10845;SDS011;5476;51.540;7.186;2023-02-24T05:05:13;9.80;;;3.23;;
10845;SDS011;5476;51.540;7.186;2023-02-24T05:07:40;11.60;;;3.53;;
10845;SDS011;5476;51.540;7.186;2023-02-24T05:10:11;14.50;;;3.10;;
10845;SDS011;5476;51.540;7.186;2023-02-24T05:12:40;11.63;;;3.67;;
10845;SDS011;5476;51.540;7.186;2023-02-24T05:15:07;13.00;;;3.73;;
10845;SDS011;5476;51.540;7.186;2023-02-24T05:17:35;15.10;;;4.57;;
10845;SDS011;5476;51.540;7.186;2023-02-24T05:20:02;12.50;;;4.43;;
10845;SDS011;5476;51.540;7.186;2023-02-24T05:22:47;14.97;;;4.87;;
10845;SDS011;5476;51.540;7.186;2023-02-24T05:25:16;13.87;;;4.73;;
10845;SDS011;5476;51.540;7.186;2023-02-24T05:27:45;13.90;;;5.37;;
10845;SDS011;5476;51.540;7.186;2023-02-24T05:30:13;17.93;;;5.13;;
10845;SDS011;5476;51.540;7.186;2023-02-24T05:32:40;17.50;;;5.97;;
10845;SDS011;5476;51.540;7.186;2023-02-24T05:35:07;18.17;;;7.40;;
10845;SDS011;5476;51.540;7.186;2023-02-24T05:37:37;13.87;;;5.30;;
10845;SDS011;5476;51.540;7.186;2023-02-24T05:40:06;16.20;;;5.63;;
10845;SDS011;5476;51.540;7.186;2023-02-24T05:42:37;15.67;;;5.80;;
10845;SDS011;5476;51.540;7.186;2023-02-24T05:45:08;15.80;;;5.27;;
10845;SDS011;5476;51.540;7.186;2023-02-24T05:47:36;13.57;;;5.13;;
10845;SDS011;5476;51.540;7.186;2023-02-24T05:50:04;18.13;;;5.77;;
10845;SDS011;5476;51.540;7.186;2023-02-24T05:52:33;19.03;;;6.57;;
10845;SDS011;5476;51.540;7.186;2023-02-24T05:55:01;13.73;;;6.80;;
10845;SDS011;5476;51.540;7.186;2023-02-24T05:57:30;17.10;;;6.97;;
10845;SDS011;5476;51.540;7.186;2023-02-24T06:00:00;16.10;;;6.13;;
10845;SDS011;5476;51.540;7.186;2023-02-24T06:02:37;14.03;;;4.77;;
10845;SDS011;5476;51.540;7.186;2023-02-24T06:05:07;13.03;;;4.37;;
10845;SDS011;5476;51.540;7.186;2023-02-24T06:07:34;9.00;;;3.70;;
10845;SDS011;5476;51.540;7.186;2023-02-24T06:10:02;8.40;;;3.27;;
10845;SDS011;5476;51.540;7.186;2023-02-24T06:12:34;11.17;;;3.70;;
10845;SDS011;5476;51.540;7.186;2023-02-24T06:15:04;9.80;;;3.73;;
10845;SDS011;5476;51.540;7.186;2023-02-24T06:17:32;13.37;;;3.83;;
10845;SDS011;5476;51.540;7.186;2023-02-24T06:20:00;14.80;;;4.73;;
10845;SDS011;5476;51.540;7.186;2023-02-24T06:22:37;11.83;;;4.27;;
10845;SDS011;5476;51.540;7.186;2023-02-24T06:25:07;11.83;;;4.17;;
10845;SDS011;5476;51.540;7.186;2023-02-24T06:27:35;17.53;;;4.47;;
10845;SDS011;5476;51.540;7.186;2023-02-24T06:30:03;15.77;;;4.60;;
10845;SDS011;5476;51.540;7.186;2023-02-24T06:32:34;15.43;;;4.97;;
10845;SDS011;5476;51.540;7.186;2023-02-24T06:35:03;12.30;;;4.17;;
10845;SDS011;5476;51.540;7.186;2023-02-24T06:37:30;10.73;;;4.17;;
10845;SDS011;5476;51.540;7.186;2023-02-24T06:39:59;12.30;;;3.70;;
10845;SDS011;5476;51.540;7.186;2023-02-24T06:42:28;13.90;;;3.70;;
10845;SDS011;5476;51.540;7.186;2023-02-24T06:44:55;11.87;;;4.47;;
10845;SDS011;5476;51.540;7.186;2023-02-24T06:47:23;14.93;;;3.90;;
10845;SDS011;5476;51.540;7.186;2023-02-24T06:49:51;12.10;;;3.80;;
10845;SDS011;5476;51.540;7.186;2023-02-24T06:52:19;7.37;;;3.43;;
10845;SDS011;5476;51.540;7.186;2023-02-24T06:54:47;10.77;;;4.10;;
10845;SDS011;5476;51.540;7.186;2023-02-24T06:57:16;13.07;;;3.43;;
10845;SDS011;5476;51.540;7.186;2023-02-24T06:59:44;10.00;;;3.80;;
10845;SDS011;5476;51.540;7.186;2023-02-24T07:02:12;13.07;;;4.47;;
10845;SDS011;5476;51.540;7.186;2023-02-24T07:04:41;11.67;;;4.00;;
10845;SDS011;5476;51.540;7.186;2023-02-24T07:07:08;14.83;;;4.00;;
10845;SDS011;5476;51.540;7.186;2023-02-24T07:09:39;13.60;;;4.90;;
10845;SDS011;5476;51.540;7.186;2023-02-24T07:12:09;14.10;;;5.20;;
10845;SDS011;5476;51.540;7.186;2023-02-24T07:14:37;11.50;;;5.10;;
10845;SDS011;5476;51.540;7.186;2023-02-24T07:17:04;12.03;;;5.17;;
10845;SDS011;5476;51.540;7.186;2023-02-24T07:19:32;10.67;;;3.80;;
10845;SDS011;5476;51.540;7.186;2023-02-24T07:22:01;7.63;;;3.57;;
10845;SDS011;5476;51.540;7.186;2023-02-24T07:24:28;11.87;;;4.03;;
10845;SDS011;5476;51.540;7.186;2023-02-24T07:27:02;9.93;;;3.30;;
10845;SDS011;5476;51.540;7.186;2023-02-24T07:29:30;15.57;;;3.60;;
10845;SDS011;5476;51.540;7.186;2023-02-24T07:31:57;14.07;;;3.43;;
10845;SDS011;5476;51.540;7.186;2023-02-24T07:34:27;12.33;;;3.10;;
10845;SDS011;5476;51.540;7.186;2023-02-24T07:36:55;12.13;;;2.97;;
10845;SDS011;5476;51.540;7.186;2023-02-24T07:39:23;7.60;;;2.90;;
10845;SDS011;5476;51.540;7.186;2023-02-24T07:41:51;12.00;;;2.53;;
10845;SDS011;5476;51.540;7.186;2023-02-24T07:44:21;14.77;;;2.80;;
10845;SDS011;5476;51.540;7.186;2023-02-24T07:46:49;9.00;;;2.83;;
10845;SDS011;5476;51.540;7.186;2023-02-24T07:49:23;9.27;;;2.77;;
10845;SDS011;5476;51.540;7.186;2023-02-24T07:51:55;13.30;;;2.90;;
10845;SDS011;5476;51.540;7.186;2023-02-24T07:54:26;16.43;;;3.00;;
10845;SDS011;5476;51.540;7.186;2023-02-24T07:56:55;10.97;;;2.60;;
10845;SDS011;5476;51.540;7.186;2023-02-24T07:59:32;8.73;;;2.93;;
10845;SDS011;5476;51.540;7.186;2023-02-24T08:02:18;9.70;;;3.13;;
10845;SDS011;5476;51.540;7.186;2023-02-24T08:04:54;14.60;;;2.97;;
10845;SDS011;5476;51.540;7.186;2023-02-24T08:07:23;11.17;;;2.50;;
10845;SDS011;5476;51.540;7.186;2023-02-24T08:09:50;11.43;;;2.83;;
10845;SDS011;5476;51.540;7.186;2023-02-24T08:12:37;7.93;;;2.83;;
10845;SDS011;5476;51.540;7.186;2023-02-24T08:15:09;9.17;;;2.70;;
10845;SDS011;5476;51.540;7.186;2023-02-24T08:17:46;6.73;;;3.03;;
10845;SDS011;5476;51.540;7.186;2023-02-24T08:20:23;10.13;;;2.60;;
10845;SDS011;5476;51.540;7.186;2023-02-24T08:22:52;8.77;;;3.20;;
10845;SDS011;5476;51.540;7.186;2023-02-24T08:25:25;12.70;;;3.53;;
10845;SDS011;5476;51.540;7.186;2023-02-24T08:27:59;8.13;;;2.87;;
10845;SDS011;5476;51.540;7.186;2023-02-24T08:30:31;9.27;;;2.70;;
10845;SDS011;5476;51.540;7.186;2023-02-24T08:33:03;11.90;;;3.03;;
10845;SDS011;5476;51.540;7.186;2023-02-24T08:35:31;8.90;;;3.53;;
10845;SDS011;5476;51.540;7.186;2023-02-24T08:38:00;13.10;;;3.57;;
10845;SDS011;5476;51.540;7.186;2023-02-24T08:40:29;13.37;;;2.90;;
10845;SDS011;5476;51.540;7.186;2023-02-24T08:43:17;10.47;;;3.13;;
10845;SDS011;5476;51.540;7.186;2023-02-24T08:45:51;9.53;;;3.00;;
10845;SDS011;5476;51.540;7.186;2023-02-24T08:48:21;13.60;;;3.00;;
10845;SDS011;5476;51.540;7.186;2023-02-24T08:50:58;11.63;;;3.17;;
10845;SDS011;5476;51.540;7.186;2023-02-24T08:53:25;8.70;;;2.60;;
10845;SDS011;5476;51.540;7.186;2023-02-24T08:55:56;12.47;;;2.73;;
10845;SDS011;5476;51.540;7.186;2023-02-24T08:58:23;6.93;;;2.70;;
10845;SDS011;5476;51.540;7.186;2023-02-24T09:00:55;9.50;;;2.63;;
10845;SDS011;5476;51.540;7.186;2023-02-24T09:03:24;8.33;;;2.00;;
10845;SDS011;5476;51.540;7.186;2023-02-24T09:05:58;9.50;;;2.37;;
10845;SDS011;5476;51.540;7.186;2023-02-24T09:08:26;12.77;;;2.33;;
10845;SDS011;5476;51.540;7.186;2023-02-24T09:10:57;7.67;;;1.90;;
10845;SDS011;5476;51.540;7.186;2023-02-24T09:13:25;8.43;;;2.00;;
10845;SDS011;5476;51.540;7.186;2023-02-24T11:22:04;11.00;;;3.77;;
10845;SDS011;5476;51.540;7.186;2023-02-24T11:25:04;11.10;;;3.67;;
10845;SDS011;5476;51.540;7.186;2023-02-24T11:27:43;14.03;;;3.73;;
10845;SDS011;5476;51.540;7.186;2023-02-24T11:30:33;9.90;;;3.37;;
10845;SDS011;5476;51.540;7.186;2023-02-24T12:28:35;16.73;;;7.13;;
10845;SDS011;5476;51.540;7.186;2023-02-24T12:34:35;16.13;;;7.80;;
10845;SDS011;5476;51.540;7.186;2023-02-24T13:20:29;14.53;;;7.23;;
10845;SDS011;5476;51.540;7.186;2023-02-24T13:41:59;16.83;;;8.53;;
10845;SDS011;5476;51.540;7.186;2023-02-24T13:44:53;17.57;;;9.37;;
10845;SDS011;5476;51.540;7.186;2023-02-24T13:53:21;22.87;;;10.67;;
10845;SDS011;5476;51.540;7.186;2023-02-24T14:05:15;19.87;;;10.60;;
10845;SDS011;5476;51.540;7.186;2023-02-24T14:08:00;18.63;;;10.63;;
10845;SDS011;5476;51.540;7.186;2023-02-24T14:10:48;18.77;;;10.57;;
10845;SDS011;5476;51.540;7.186;2023-02-24T14:13:24;18.33;;;11.23;;
10845;SDS011;5476;51.540;7.186;2023-02-24T14:15:54;17.83;;;10.63;;
10845;SDS011;5476;51.540;7.186;2023-02-24T14:19:01;21.30;;;11.37;;
10845;SDS011;5476;51.540;7.186;2023-02-24T14:25:08;19.63;;;12.13;;
10845;SDS011;5476;51.540;7.186;2023-02-24T14:27:44;22.83;;;12.77;;
10845;SDS011;5476;51.540;7.186;2023-02-24T14:30:22;20.20;;;12.53;;
10845;SDS011;5476;51.540;7.186;2023-02-24T14:33:16;28.73;;;13.23;;
10845;SDS011;5476;51.540;7.186;2023-02-24T14:36:23;20.23;;;13.20;;
10845;SDS011;5476;51.540;7.186;2023-02-24T14:38:58;24.67;;;14.63;;
10845;SDS011;5476;51.540;7.186;2023-02-24T14:41:27;20.87;;;13.93;;
10845;SDS011;5476;51.540;7.186;2023-02-24T14:44:04;26.23;;;14.43;;
10845;SDS011;5476;51.540;7.186;2023-02-24T14:46:31;27.33;;;14.20;;
10845;SDS011;5476;51.540;7.186;2023-02-24T14:48:58;24.87;;;14.70;;
10845;SDS011;5476;51.540;7.186;2023-02-24T14:51:28;28.97;;;15.77;;
10845;SDS011;5476;51.540;7.186;2023-02-24T14:54:00;26.10;;;14.97;;
10845;SDS011;5476;51.540;7.186;2023-02-24T14:56:29;27.47;;;14.90;;
10845;SDS011;5476;51.540;7.186;2023-02-24T14:58:57;33.00;;;16.40;;
10845;SDS011;5476;51.540;7.186;2023-02-24T15:01:26;51.27;;;26.17;;
10845;SDS011;5476;51.540;7.186;2023-02-24T15:03:57;27.53;;;15.40;;
10845;SDS011;5476;51.540;7.186;2023-02-24T15:06:25;31.20;;;15.27;;
10845;SDS011;5476;51.540;7.186;2023-02-24T15:08:56;24.23;;;14.60;;
10845;SDS011;5476;51.540;7.186;2023-02-24T15:11:25;30.80;;;16.80;;
10845;SDS011;5476;51.540;7.186;2023-02-24T15:13:53;32.13;;;17.20;;
10845;SDS011;5476;51.540;7.186;2023-02-24T15:16:22;30.83;;;16.53;;
10845;SDS011;5476;51.540;7.186;2023-02-24T15:18:50;32.83;;;16.30;;
10845;SDS011;5476;51.540;7.186;2023-02-24T15:21:19;31.37;;;18.13;;
10845;SDS011;5476;51.540;7.186;2023-02-24T15:23:47;29.43;;;16.93;;
10845;SDS011;5476;51.540;7.186;2023-02-24T15:26:27;28.73;;;16.30;;
10845;SDS011;5476;51.540;7.186;2023-02-24T15:28:58;32.90;;;16.50;;
10845;SDS011;5476;51.540;7.186;2023-02-24T15:31:26;29.10;;;16.83;;
10845;SDS011;5476;51.540;7.186;2023-02-24T15:33:55;32.13;;;16.93;;
10845;SDS011;5476;51.540;7.186;2023-02-24T15:36:24;29.40;;;17.03;;
10845;SDS011;5476;51.540;7.186;2023-02-24T15:38:54;30.67;;;17.93;;
10845;SDS011;5476;51.540;7.186;2023-02-24T15:41:22;34.07;;;17.97;;
10845;SDS011;5476;51.540;7.186;2023-02-24T15:43:52;31.63;;;18.33;;
10845;SDS011;5476;51.540;7.186;2023-02-24T15:46:24;34.20;;;19.03;;
10845;SDS011;5476;51.540;7.186;2023-02-24T15:48:53;36.67;;;19.70;;
10845;SDS011;5476;51.540;7.186;2023-02-24T15:51:28;32.77;;;18.80;;
10845;SDS011;5476;51.540;7.186;2023-02-24T15:53:56;35.73;;;17.20;;
10845;SDS011;5476;51.540;7.186;2023-02-24T15:56:25;29.10;;;18.00;;
10845;SDS011;5476;51.540;7.186;2023-02-24T15:58:54;33.13;;;19.07;;
10845;SDS011;5476;51.540;7.186;2023-02-24T16:01:25;34.07;;;18.83;;
10845;SDS011;5476;51.540;7.186;2023-02-24T16:03:52;29.97;;;18.37;;
10845;SDS011;5476;51.540;7.186;2023-02-24T16:06:20;34.07;;;17.93;;
10845;SDS011;5476;51.540;7.186;2023-02-24T16:08:48;30.10;;;17.67;;
10845;SDS011;5476;51.540;7.186;2023-02-24T16:11:17;28.90;;;16.93;;
10845;SDS011;5476;51.540;7.186;2023-02-24T16:13:48;33.53;;;18.10;;
10845;SDS011;5476;51.540;7.186;2023-02-24T16:16:17;31.00;;;17.77;;
10845;SDS011;5476;51.540;7.186;2023-02-24T16:18:45;31.77;;;17.87;;
10845;SDS011;5476;51.540;7.186;2023-02-24T16:21:12;30.30;;;17.70;;
10845;SDS011;5476;51.540;7.186;2023-02-24T16:23:39;34.13;;;18.37;;
10845;SDS011;5476;51.540;7.186;2023-02-24T16:26:08;33.57;;;19.20;;
10845;SDS011;5476;51.540;7.186;2023-02-24T16:28:38;28.00;;;17.73;;
10845;SDS011;5476;51.540;7.186;2023-02-24T16:31:06;28.60;;;17.30;;
10845;SDS011;5476;51.540;7.186;2023-02-24T16:33:35;32.07;;;17.80;;
10845;SDS011;5476;51.540;7.186;2023-02-24T16:36:02;24.03;;;14.60;;
10845;SDS011;5476;51.540;7.186;2023-02-24T16:38:29;20.93;;;12.77;;
10845;SDS011;5476;51.540;7.186;2023-02-24T16:40:57;24.20;;;11.23;;
10845;SDS011;5476;51.540;7.186;2023-02-24T16:43:24;21.60;;;11.33;;
10845;SDS011;5476;51.540;7.186;2023-02-24T16:45:51;16.90;;;9.77;;
10845;SDS011;5476;51.540;7.186;2023-02-24T16:48:20;13.97;;;7.23;;
10845;SDS011;5476;51.540;7.186;2023-02-24T16:50:50;12.13;;;6.67;;
10845;SDS011;5476;51.540;7.186;2023-02-24T16:53:18;13.60;;;6.13;;
10845;SDS011;5476;51.540;7.186;2023-02-24T16:55:46;12.37;;;6.27;;
10845;SDS011;5476;51.540;7.186;2023-02-24T16:58:14;12.10;;;5.47;;
10845;SDS011;5476;51.540;7.186;2023-02-24T17:00:44;12.77;;;5.63;;
10845;SDS011;5476;51.540;7.186;2023-02-24T17:03:14;12.23;;;5.07;;
10845;SDS011;5476;51.540;7.186;2023-02-24T17:05:42;15.40;;;5.73;;
10845;SDS011;5476;51.540;7.186;2023-02-24T17:08:11;10.83;;;4.07;;
10845;SDS011;5476;51.540;7.186;2023-02-24T17:10:39;14.37;;;4.00;;
10845;SDS011;5476;51.540;7.186;2023-02-24T17:13:07;9.47;;;4.60;;
10845;SDS011;5476;51.540;7.186;2023-02-24T17:15:36;8.87;;;3.67;;
10845;SDS011;5476;51.540;7.186;2023-02-24T17:18:03;12.13;;;3.73;;
10845;SDS011;5476;51.540;7.186;2023-02-24T17:20:31;13.33;;;4.37;;
10845;SDS011;5476;51.540;7.186;2023-02-24T17:22:59;14.00;;;3.60;;
10845;SDS011;5476;51.540;7.186;2023-02-24T17:25:28;11.10;;;3.17;;
10845;SDS011;5476;51.540;7.186;2023-02-24T17:27:56;9.77;;;3.17;;
10845;SDS011;5476;51.540;7.186;2023-02-24T17:30:24;11.13;;;3.00;;
10845;SDS011;5476;51.540;7.186;2023-02-24T17:32:52;7.83;;;2.73;;
10845;SDS011;5476;51.540;7.186;2023-02-24T17:35:19;9.43;;;2.80;;
10845;SDS011;5476;51.540;7.186;2023-02-24T17:37:48;10.27;;;3.00;;
10845;SDS011;5476;51.540;7.186;2023-02-24T17:40:20;14.47;;;3.13;;
10845;SDS011;5476;51.540;7.186;2023-02-24T17:42:49;10.83;;;2.97;;
10845;SDS011;5476;51.540;7.186;2023-02-24T17:45:18;10.67;;;2.57;;
10845;SDS011;5476;51.540;7.186;2023-02-24T17:47:46;13.27;;;3.30;;
10845;SDS011;5476;51.540;7.186;2023-02-24T17:50:13;12.70;;;2.97;;
10845;SDS011;5476;51.540;7.186;2023-02-24T17:52:41;10.90;;;3.20;;
10845;SDS011;5476;51.540;7.186;2023-02-24T17:55:08;9.17;;;2.70;;
10845;SDS011;5476;51.540;7.186;2023-02-24T17:57:36;7.77;;;2.20;;
10845;SDS011;5476;51.540;7.186;2023-02-24T18:00:06;6.90;;;1.63;;
10845;SDS011;5476;51.540;7.186;2023-02-24T18:02:33;4.67;;;1.33;;
10845;SDS011;5476;51.540;7.186;2023-02-24T18:05:00;5.93;;;1.60;;
10845;SDS011;5476;51.540;7.186;2023-02-24T18:07:28;6.43;;;1.47;;
10845;SDS011;5476;51.540;7.186;2023-02-24T18:09:55;4.20;;;1.47;;
10845;SDS011;5476;51.540;7.186;2023-02-24T18:12:23;7.23;;;3.90;;
10845;SDS011;5476;51.540;7.186;2023-02-24T18:14:51;3.40;;;1.33;;
10845;SDS011;5476;51.540;7.186;2023-02-24T18:17:21;5.43;;;2.23;;
10845;SDS011;5476;51.540;7.186;2023-02-24T18:19:51;5.30;;;1.50;;
10845;SDS011;5476;51.540;7.186;2023-02-24T18:22:18;4.37;;;1.40;;
10845;SDS011;5476;51.540;7.186;2023-02-24T18:24:45;3.93;;;1.10;;
10845;SDS011;5476;51.540;7.186;2023-02-24T18:27:13;3.60;;;1.17;;
10845;SDS011;5476;51.540;7.186;2023-02-24T18:29:40;5.77;;;1.20;;
10845;SDS011;5476;51.540;7.186;2023-02-24T18:32:07;3.40;;;1.10;;
10845;SDS011;5476;51.540;7.186;2023-02-24T18:34:36;4.73;;;1.27;;
10845;SDS011;5476;51.540;7.186;2023-02-24T18:37:03;3.87;;;1.80;;
10845;SDS011;5476;51.540;7.186;2023-02-24T18:39:34;4.53;;;1.30;;
10845;SDS011;5476;51.540;7.186;2023-02-24T18:42:01;5.37;;;1.40;;
10845;SDS011;5476;51.540;7.186;2023-02-24T18:44:28;7.63;;;1.47;;
10845;SDS011;5476;51.540;7.186;2023-02-24T18:46:56;2.37;;;1.40;;
10845;SDS011;5476;51.540;7.186;2023-02-24T18:49:23;7.00;;;1.40;;
10845;SDS011;5476;51.540;7.186;2023-02-24T18:51:51;4.83;;;1.40;;
10845;SDS011;5476;51.540;7.186;2023-02-24T18:54:19;3.10;;;1.90;;
10845;SDS011;5476;51.540;7.186;2023-02-24T18:56:46;5.13;;;1.57;;
10845;SDS011;5476;51.540;7.186;2023-02-24T18:59:13;5.90;;;1.50;;
10845;SDS011;5476;51.540;7.186;2023-02-24T19:01:40;7.17;;;1.80;;
10845;SDS011;5476;51.540;7.186;2023-02-24T19:04:07;5.43;;;1.40;;
10845;SDS011;5476;51.540;7.186;2023-02-24T19:06:35;8.97;;;1.63;;
10845;SDS011;5476;51.540;7.186;2023-02-24T19:09:05;2.53;;;1.43;;
10845;SDS011;5476;51.540;7.186;2023-02-24T19:11:33;8.33;;;1.70;;
10845;SDS011;5476;51.540;7.186;2023-02-24T19:14:01;6.37;;;1.50;;
10845;SDS011;5476;51.540;7.186;2023-02-24T19:16:28;8.53;;;1.37;;
10845;SDS011;5476;51.540;7.186;2023-02-24T19:18:56;4.00;;;1.37;;
10845;SDS011;5476;51.540;7.186;2023-02-24T19:21:24;7.17;;;2.20;;
10845;SDS011;5476;51.540;7.186;2023-02-24T19:23:52;6.60;;;1.47;;
10845;SDS011;5476;51.540;7.186;2023-02-24T19:26:21;8.40;;;2.00;;
10845;SDS011;5476;51.540;7.186;2023-02-24T19:28:49;10.73;;;1.77;;
10845;SDS011;5476;51.540;7.186;2023-02-24T19:31:17;5.93;;;1.73;;
10845;SDS011;5476;51.540;7.186;2023-02-24T19:33:44;7.23;;;1.37;;
10845;SDS011;5476;51.540;7.186;2023-02-24T19:36:12;8.03;;;1.93;;
10845;SDS011;5476;51.540;7.186;2023-02-24T19:38:41;31.23;;;14.47;;